SV1LH-1 Melissia GR current weather conditions

sailwx.info

Wind at 6 knots gusting 9

Air temperature 12.8° C
Dewpoint 7.2° C

Last reported at 2014-Oct-31 11:50 UTC.
Time now 2014-Oct-31 12:53 UTC

Location: N 38°03' E 023°51'.
View on Google Maps.

See reports from other nearby stations

  
Tides and Currents Weather Stations Pressure Air Temp Water Temp Dewpoint Dewpoint Depression Visibility Wind Speed Wind Dir Waves Ship Positions
date/time (UTC)wind fromknots sea level pressurealtimeterstation pressurevisibilityair tempwater tempwave heightnotes
2014-Oct-31 11:50 12.8
2014-Oct-31 11:45 045 3 gusting 6 12.8
2014-Oct-31 11:40 067 5 gusting 8 12.8
2014-Oct-31 11:35 045 4 gusting 6 13.3
2014-Oct-31 11:30 045 5 gusting 10 13.3
2014-Oct-31 11:25 067 6 gusting 8 12.8
2014-Oct-31 11:20 13.3
2014-Oct-31 11:15 022 4 gusting 6 13.3
2014-Oct-31 11:10 022 4 gusting 7 13.3
2014-Oct-31 11:05 13.9
2014-Oct-31 11:00 337 4 gusting 6 13.9
2014-Oct-31 10:55 13.9
2014-Oct-31 10:50 022 5 gusting 7 13.9
2014-Oct-31 10:45 022 6 gusting 7 13.9
2014-Oct-31 10:40 13.9
2014-Oct-31 10:35 067 3 gusting 5 13.9
2014-Oct-31 10:30 045 1 gusting 2 13.9
2014-Oct-31 10:25 337 6 gusting 8 14.4
2014-Oct-31 10:20 15.6
2014-Oct-31 10:15 315 3 gusting 4 16.1
2014-Oct-31 10:10 16.1
2014-Oct-31 10:05 337 3 gusting 6 15.6
2014-Oct-31 10:00 045 1 gusting 4 13.9
2014-Oct-31 09:55 13.9
2014-Oct-31 09:50 067 3 gusting 6 13.9
2014-Oct-31 09:46 14.4
2014-Oct-31 09:40 045 4 gusting 10 14.4
2014-Oct-31 09:35 067 3 gusting 6 15.0
2014-Oct-31 09:30 067 1 gusting 4 15.0
2014-Oct-31 09:25 16.1
2014-Oct-31 09:21 090 3 gusting 6 15.6
2014-Oct-31 09:16 14.4
2014-Oct-31 09:10 022 5 gusting 6 13.3
2014-Oct-31 09:05 12.8
2014-Oct-31 09:00 12.2
2014-Oct-31 08:55 12.2
2014-Oct-31 08:50 090 5 gusting 8 12.2
2014-Oct-31 08:45 022 4 gusting 6 11.7
2014-Oct-31 08:41 11.7
2014-Oct-31 08:35 045 4 gusting 6 11.1
2014-Oct-31 08:30 11.1
2014-Oct-31 08:25 045 7 gusting 10 10.6
2014-Oct-31 08:20 10.6
2014-Oct-31 08:16 10.6
2014-Oct-31 08:10 10.6
2014-Oct-31 08:05 090 4 gusting 6 10.6
2014-Oct-31 08:00 11.1
2014-Oct-31 07:55 337 3 gusting 5 11.7
2014-Oct-31 07:50 067 4 gusting 6 12.2
2014-Oct-31 07:45 337 5 gusting 8 12.2
2014-Oct-31 07:40 022 7 gusting 9 12.2
2014-Oct-31 07:35 022 6 gusting 9 12.2
2014-Oct-31 07:30 12.2
2014-Oct-31 07:25 045 2 gusting 4 11.7
2014-Oct-31 07:20 022 8 gusting 12 11.1
2014-Oct-31 07:15 045 6 gusting 7 11.1
2014-Oct-31 07:10 022 6 gusting 12 11.1
2014-Oct-31 07:05 045 9 gusting 13 11.1
2014-Oct-31 07:00 10.6
2014-Oct-31 06:55 045 6 gusting 10 10.6
2014-Oct-31 06:50 10.6
2014-Oct-31 06:45 022 6 gusting 6 10.6
2014-Oct-31 06:40 022 6 gusting 8 10.6
2014-Oct-31 06:35 022 2 gusting 3 10.6
2014-Oct-31 06:31 10.6
2014-Oct-31 06:25 315 3 gusting 7 10.6
2014-Oct-31 06:20 11.1
2014-Oct-31 06:15 045 2 gusting 5 11.1
2014-Oct-31 06:10 180 0 gusting 2 10.6
2014-Oct-31 06:05 10.6
2014-Oct-31 06:00 090 1 gusting 2 10.6
2014-Oct-31 05:55 045 2 gusting 3 10.6
2014-Oct-31 05:50 022 6 gusting 8 10.6
2014-Oct-31 05:45 292 4 gusting 7 11.1
2014-Oct-31 05:40 337 4 gusting 6 11.1
2014-Oct-31 05:35 11.7
2014-Oct-31 05:30 337 4 gusting 6 10.6
2014-Oct-31 05:25 10.6
2014-Oct-31 05:20 292 3 gusting 5 10.0
2014-Oct-31 05:15 157 3 gusting 5 10.6
2014-Oct-31 05:10 337 2 gusting 5 10.0
2014-Oct-31 05:05 022 2 gusting 3 10.0
2014-Oct-31 05:00 090 5 gusting 7 10.0
2014-Oct-31 04:55 067 1 gusting 3 10.0
2014-Oct-31 04:50 270 1 gusting 3 10.0
2014-Oct-31 04:45 225 10.0
2014-Oct-31 04:40 090 1 gusting 3 10.0
2014-Oct-31 04:35 045 1 gusting 4 10.0
2014-Oct-31 04:30 9.4
2014-Oct-31 04:25 112 2 gusting 5 9.4
2014-Oct-31 04:20 315 3 gusting 5 9.4
2014-Oct-31 04:15 315 2 gusting 3 9.4
2014-Oct-31 04:10 315 3 gusting 5 10.0
2014-Oct-31 04:05 270 3 gusting 6 10.0
2014-Oct-31 04:00 10.0
2014-Oct-31 03:55 022 4 gusting 6 10.0
2014-Oct-31 03:50 10.0
2014-Oct-31 03:45 315 4 gusting 6 10.0
2014-Oct-31 03:40 10.0
2014-Oct-31 03:35 337 6 gusting 8 10.0
2014-Oct-31 03:31 10.0
2014-Oct-31 03:25 10.6
2014-Oct-31 03:20 022 3 gusting 6 10.6
2014-Oct-31 03:15 022 2 gusting 5 10.6
2014-Oct-31 03:10 10.0
2014-Oct-31 03:05 292 10.0
2014-Oct-31 03:00 10.0
2014-Oct-31 02:55 10.0
2014-Oct-31 02:50 045 1 gusting 3 10.0
2014-Oct-31 02:45 10.0
2014-Oct-31 02:40 067 0 gusting 1 10.0
2014-Oct-31 02:35 315 0 gusting 1 10.0
2014-Oct-31 02:30 022 0 gusting 4 10.0
2014-Oct-31 02:25 270 0 gusting 0 10.0
2014-Oct-31 02:20 247 10.0
2014-Oct-31 02:15 292 1 gusting 2 10.0
2014-Oct-31 02:10 067 1 gusting 3 10.0
2014-Oct-31 02:05 337 1 gusting 3 10.0
2014-Oct-31 02:00 270 1 gusting 2 10.0
2014-Oct-31 01:55 337 2 gusting 4 10.6
2014-Oct-31 01:50 292 2 gusting 3 10.6
2014-Oct-31 01:45 337 1 gusting 2 10.6
2014-Oct-31 01:40 10.6
2014-Oct-31 01:35 022 5 gusting 6 10.0
2014-Oct-31 01:30 045 1 gusting 3 10.0
2014-Oct-31 01:25 10.0
2014-Oct-31 01:20 315 10.0
2014-Oct-31 01:15 135 10.0
2014-Oct-31 01:10 022 0 gusting 1 10.0
2014-Oct-31 01:05 045 3 gusting 5 10.0
2014-Oct-31 01:00 090 0 gusting 0 10.0
2014-Oct-31 00:55 067 1 gusting 2 10.6
2014-Oct-31 00:50 10.6
2014-Oct-31 00:45 022 10.6
2014-Oct-31 00:40 022 2 gusting 5 10.6
2014-Oct-31 00:35 292 3 gusting 5 10.6
2014-Oct-31 00:30 337 1 gusting 2 10.6
2014-Oct-31 00:25 045 3 gusting 5 10.6
2014-Oct-31 00:20 270 1 gusting 3 10.6
2014-Oct-31 00:15 045 2 gusting 4 10.6
2014-Oct-31 00:10 337 2 gusting 3 10.6
2014-Oct-31 00:05 270 0 gusting 1 10.6
2014-Oct-30 23:58 10.6
2014-Oct-30 23:55 112 1 gusting 4 10.6
2014-Oct-30 23:50 247 10.6
2014-Oct-30 23:45 180 0 gusting 1 11.1
2014-Oct-30 23:40 045 3 gusting 4 11.1
2014-Oct-30 23:35 090 3 gusting 3 10.6
2014-Oct-30 23:30 045 2 gusting 4 10.6
2014-Oct-30 23:25 202 0 gusting 1 10.6
2014-Oct-30 23:20 090 1 gusting 3 10.6
2014-Oct-30 23:15 090 0 gusting 1 11.1
2014-Oct-30 23:10 045 2 gusting 4 11.1
2014-Oct-30 23:05 11.1
2014-Oct-30 23:00 045 6 gusting 7 11.1
2014-Oct-30 22:55 022 0 gusting 2 11.1
2014-Oct-30 22:50 337 1 gusting 3 11.1
2014-Oct-30 22:45 022 3 gusting 5 11.1
2014-Oct-30 22:40 067 0 gusting 1 11.1
2014-Oct-30 22:35 022 1 gusting 5 11.1
2014-Oct-30 22:30 045 1 gusting 3 11.1
2014-Oct-30 22:25 11.1
2014-Oct-30 22:20 067 1 gusting 2 11.1
2014-Oct-30 22:15 022 0 gusting 2 10.6
2014-Oct-30 22:10 090 0 gusting 0 10.6
2014-Oct-30 22:05 022 0 gusting 2 10.6
2014-Oct-30 22:00 10.6
2014-Oct-30 21:55 225 1 gusting 5 11.1
2014-Oct-30 21:50 11.1
2014-Oct-30 21:45 135 3 gusting 4 11.1
2014-Oct-30 21:40 225 0 gusting 2 11.1
2014-Oct-30 21:35 045 2 gusting 5 11.1
2014-Oct-30 21:30 11.1
2014-Oct-30 21:25 067 4 gusting 6 11.1
2014-Oct-30 21:20 11.1
2014-Oct-30 21:15 11.1
2014-Oct-30 21:10 045 1 gusting 3 11.1
2014-Oct-30 21:05 067 2 gusting 6 11.1
2014-Oct-30 21:00 045 4 gusting 6 11.1
2014-Oct-30 20:55 067 4 gusting 6 10.6
2014-Oct-30 20:50 090 5 gusting 7 10.6
2014-Oct-30 20:45 090 0 gusting 1 10.6
2014-Oct-30 20:40 090 2 gusting 5 10.0
2014-Oct-30 20:35 157 1 gusting 2 10.0
2014-Oct-30 20:30 022 0 gusting 1 9.4
2014-Oct-30 20:24 180 0 gusting 0 10.0
2014-Oct-30 20:20 067 0 gusting 0 10.0
2014-Oct-30 20:15 157 2 gusting 3 10.0
2014-Oct-30 20:10 090 1 gusting 2 10.0
2014-Oct-30 20:05 135 0 gusting 1 10.0
2014-Oct-30 20:00 247 0 gusting 1 10.6
2014-Oct-30 19:55 270 0 gusting 1 10.6
2014-Oct-30 19:50 270 10.6
2014-Oct-30 19:45 067 10.6
2014-Oct-30 19:40 337 10.6
2014-Oct-30 19:35 247 0 gusting 0 10.6
2014-Oct-30 19:30 157 10.6
2014-Oct-30 19:25 180 0 gusting 0 10.6
2014-Oct-30 19:21 022 2 gusting 4 10.6
2014-Oct-30 19:15 292 10.6
2014-Oct-30 19:10 022 10.6
2014-Oct-30 19:05 022 0 gusting 1 11.1
2014-Oct-30 19:00 045 0 gusting 0 11.1
2014-Oct-30 18:55 090 0 gusting 1 11.1
2014-Oct-30 18:50 270 1 gusting 1 11.1
2014-Oct-30 18:45 045 11.1
2014-Oct-30 18:40 315 11.1
2014-Oct-30 18:35 180 1 gusting 1 11.1
2014-Oct-30 18:30 090 0 gusting 1 11.7
2014-Oct-30 18:25 090 1 gusting 3 11.1
2014-Oct-30 18:20 067 1 gusting 3 11.1
2014-Oct-30 18:15 090 1 gusting 2 11.1
2014-Oct-30 18:10 090 0 gusting 2 11.1
2014-Oct-30 18:05 225 0 gusting 1 11.1
2014-Oct-30 18:00 135 0 gusting 1 11.7
2014-Oct-30 17:55 292 11.7
2014-Oct-30 17:50 11.7
2014-Oct-30 17:45 247 11.7
2014-Oct-30 17:40 067 0 gusting 1 11.7
2014-Oct-30 17:35 067 1 gusting 1 11.7
2014-Oct-30 17:30 022 2 gusting 3 11.7
2014-Oct-30 17:25 045 3 gusting 6 11.7
2014-Oct-30 17:20 12.2
2014-Oct-30 17:15 090 2 gusting 4 12.2
2014-Oct-30 17:10 067 3 gusting 6 12.2
2014-Oct-30 17:06 045 2 gusting 5 11.7
2014-Oct-30 17:00 11.7
2014-Oct-30 16:55 045 0 gusting 2 12.2
2014-Oct-30 16:50 022 3 gusting 5 12.2
2014-Oct-30 16:45 315 4 gusting 6 12.2
2014-Oct-30 16:40 045 2 gusting 6 12.2
2014-Oct-30 16:35 090 3 gusting 5 12.2
2014-Oct-30 16:30 045 3 gusting 5 12.2
2014-Oct-30 16:25 045 2 gusting 4 12.2
2014-Oct-30 16:20 045 1 gusting 2 12.2
2014-Oct-30 16:15 067 4 gusting 6 12.2
2014-Oct-30 16:10 045 2 gusting 3 12.2
2014-Oct-30 16:05 045 4 gusting 6 12.2
2014-Oct-30 16:00 12.2
2014-Oct-30 15:55 12.2
2014-Oct-30 15:50 022 2 gusting 4 12.8
2014-Oct-30 15:45 045 4 gusting 6 12.8
2014-Oct-30 15:40 067 3 gusting 5 12.8
2014-Oct-30 15:35 12.8
2014-Oct-30 15:30 13.3
2014-Oct-30 15:25 022 4 gusting 6 13.3
2014-Oct-30 15:20 13.3
2014-Oct-30 15:15 045 3 gusting 5 13.9
2014-Oct-30 15:10 13.9
2014-Oct-30 15:05 022 1 gusting 5 14.4
2014-Oct-30 15:00 15.0
2014-Oct-30 14:55 045 3 gusting 5 15.6
2014-Oct-30 14:50 022 0 gusting 1 15.6
2014-Oct-30 14:45 045 2 gusting 5 16.1
2014-Oct-30 14:40 225 0 gusting 3 16.7
2014-Oct-30 14:35 045 3 gusting 5 16.7
2014-Oct-30 14:30 16.7
2014-Oct-30 14:25 16.7
2014-Oct-30 14:21 045 1 gusting 3 16.1
2014-Oct-30 14:15 045 3 gusting 6 15.6
2014-Oct-30 14:10 045 1 gusting 3 15.6
2014-Oct-30 14:05 15.6
2014-Oct-30 14:00 022 4 gusting 6 15.6
2014-Oct-30 13:55 045 6 gusting 8 16.1
2014-Oct-30 13:50 16.1
2014-Oct-30 13:45 045 4 gusting 7 16.7
2014-Oct-30 13:40 16.1
2014-Oct-30 13:35 090 0 gusting 1 16.1
2014-Oct-30 13:30 045 3 gusting 6 15.6
2014-Oct-30 13:25 022 4 gusting 6 15.6
2014-Oct-30 13:20 022 3 gusting 6 15.6
2014-Oct-30 13:15 16.1
2014-Oct-30 13:10 045 3 gusting 5 16.7
2014-Oct-30 13:05 022 1 gusting 3 17.2
2014-Oct-30 13:00 022 5 gusting 6 17.2
2014-Oct-30 12:55 022 2 gusting 4 17.2
2014-Oct-30 12:50 17.8
2014-Oct-30 12:45 022 2 gusting 4 17.8
2014-Oct-30 12:40 17.2
2014-Oct-30 12:35 067 2 gusting 5 17.2
2014-Oct-30 12:30 022 4 gusting 6 18.3
2014-Oct-30 12:25 337 2 gusting 4 18.9
2014-Oct-30 12:20 045 4 gusting 7 19.4
2014-Oct-30 12:15 022 6 gusting 8 19.4
2014-Oct-30 12:10 18.9
2014-Oct-30 12:05 19.4
2014-Oct-30 12:00 022 4 gusting 6 19.4
2014-Oct-30 11:55 022 5 gusting 8 19.4
2014-Oct-30 11:50 337 6 gusting 9 18.9
2014-Oct-30 11:45 18.3
2014-Oct-30 11:40 022 6 gusting 7 17.2
2014-Oct-30 11:35 112 5 gusting 7 16.7
2014-Oct-30 11:30 16.7
2014-Oct-30 11:25 022 5 gusting 6 17.2
2014-Oct-30 11:20 022 6 gusting 8 18.3
2014-Oct-30 11:15 20.0
2014-Oct-30 11:10 292 0 gusting 1 19.4
2014-Oct-30 11:05 067 2 gusting 5 17.8
2014-Oct-30 11:00 022 5 gusting 6 16.1
2014-Oct-30 10:55 337 3 gusting 6 16.1
2014-Oct-30 10:50 16.1
2014-Oct-30 10:45 16.7
2014-Oct-30 10:40 337 4 gusting 6 17.2
2014-Oct-30 10:35 17.2
2014-Oct-30 10:30 067 4 gusting 6 18.3
2014-Oct-30 10:25 022 5 gusting 6 18.9
2014-Oct-30 10:20 18.3
2014-Oct-30 10:15 022 2 gusting 3 17.2
2014-Oct-30 10:10 17.2
2014-Oct-30 10:05 17.2
2014-Oct-30 10:00 045 6 gusting 6 17.8
2014-Oct-30 09:55 022 5 gusting 8 18.3
2014-Oct-30 09:50 337 6 gusting 9 20.0
2014-Oct-30 09:45 022 4 gusting 6 20.0
2014-Oct-30 09:40 18.9
2014-Oct-30 09:35 022 0 gusting 1 20.0
2014-Oct-30 09:30 21.1
2014-Oct-30 09:25 045 1 gusting 4 20.6
2014-Oct-30 09:20 022 5 gusting 6 20.0
2014-Oct-30 09:15 045 6 gusting 10 20.0
2014-Oct-30 09:10 022 4 gusting 6 20.0
2014-Oct-30 09:05 315 2 gusting 3 20.6
2014-Oct-30 09:00 022 4 gusting 6 20.6
2014-Oct-30 08:55 20.6
2014-Oct-30 08:50 045 0 gusting 3 20.6
2014-Oct-30 08:45 337 0 gusting 1 20.0
2014-Oct-30 08:40 337 4 gusting 6 19.4
2014-Oct-30 08:35 315 5 gusting 6 19.4
2014-Oct-30 08:30 022 6 gusting 8 19.4
2014-Oct-30 08:25 20.0
2014-Oct-30 08:20 315 5 gusting 6 20.6
2014-Oct-30 08:15 20.6
2014-Oct-30 08:10 21.1
2014-Oct-30 08:05 225 0 gusting 2 20.6
2014-Oct-30 08:00 247 1 gusting 3 20.6
2014-Oct-30 07:55 247 1 gusting 1 20.0
2014-Oct-30 07:50 225 3 gusting 3 20.0
2014-Oct-30 07:45 270 0 gusting 1 20.0
2014-Oct-30 07:40 270 1 gusting 4 20.0
2014-Oct-30 07:35 292 2 gusting 3 20.0
2014-Oct-30 07:30 180 2 gusting 2 20.6
2014-Oct-30 07:25 247 0 gusting 1 20.0
2014-Oct-30 07:20 292 2 gusting 2 20.0
2014-Oct-30 07:15 270 1 gusting 2 20.0
2014-Oct-30 07:10 270 0 gusting 1 20.0
2014-Oct-30 07:05 225 19.4
2014-Oct-30 07:00 270 0 gusting 1 18.9
2014-Oct-30 06:55 247 0 gusting 1 18.3
2014-Oct-30 06:50 292 1 gusting 1 17.8
2014-Oct-30 06:45 292 1 gusting 3 17.8
2014-Oct-30 06:40 292 1 gusting 3 17.8
2014-Oct-30 06:35 292 1 gusting 3 17.2
2014-Oct-30 06:30 270 0 gusting 1 17.2
2014-Oct-30 06:25 337 2 gusting 2 16.7
2014-Oct-30 06:21 292 0 gusting 1 16.7
2014-Oct-30 06:15 292 2 gusting 3 16.1
2014-Oct-30 06:10 270 1 gusting 2 16.1
2014-Oct-30 06:05 270 2 gusting 3 15.6
2014-Oct-30 06:00 292 1 gusting 3 15.0
2014-Oct-30 05:55 315 3 gusting 4 14.4
2014-Oct-30 05:50 022 2 gusting 3 13.9
2014-Oct-30 05:45 022 5 gusting 6 13.3
2014-Oct-30 05:40 022 5 gusting 8 12.8
2014-Oct-30 05:36 12.8
2014-Oct-30 05:30 315 6 gusting 11 12.2
2014-Oct-30 05:25 045 5 gusting 8 11.7
2014-Oct-30 05:20 022 6 gusting 10 11.1
2014-Oct-30 05:15 045 4 gusting 6 11.1
2014-Oct-30 05:10 045 6 gusting 7 10.6
2014-Oct-30 05:05 10.6
2014-Oct-30 05:00 315 3 gusting 7 10.6
2014-Oct-30 04:55 337 3 gusting 6 10.6
2014-Oct-30 04:50 022 5 gusting 6 10.6
2014-Oct-30 04:45 045 5 gusting 7 10.6
2014-Oct-30 04:40 022 4 gusting 6 10.6
2014-Oct-30 04:35 045 3 gusting 6 10.6
2014-Oct-30 04:30 067 4 gusting 6 10.6
2014-Oct-30 04:25 067 3 gusting 6 10.6
2014-Oct-30 04:20 10.6
2014-Oct-30 04:15 022 3 gusting 7 10.6
2014-Oct-30 04:10 022 5 gusting 8 10.6
2014-Oct-30 04:05 022 5 gusting 7 10.6
2014-Oct-30 04:00 10.6
2014-Oct-30 03:55 10.6
2014-Oct-30 03:50 337 4 gusting 5 10.6
2014-Oct-30 03:45 022 4 gusting 7 10.6
2014-Oct-30 03:40 022 4 gusting 6 10.6
2014-Oct-30 03:35 045 4 gusting 5 10.6
2014-Oct-30 03:30 10.6
2014-Oct-30 03:25 090 5 gusting 8 10.6
2014-Oct-30 03:20 067 3 gusting 5 11.1
2014-Oct-30 03:15 10.6
2014-Oct-30 03:10 022 4 gusting 6 10.6
2014-Oct-30 03:05 10.6
2014-Oct-30 03:00 337 5 gusting 7 10.6
2014-Oct-30 02:55 135 2 gusting 6 10.6
2014-Oct-30 02:50 045 4 gusting 6 10.6
2014-Oct-30 02:45 112 2 gusting 4 10.6
2014-Oct-30 02:40 045 4 gusting 8 10.6
2014-Oct-30 02:35 022 5 gusting 8 10.6
2014-Oct-30 02:30 11.1
2014-Oct-30 02:25 022 6 gusting 9 11.1
2014-Oct-30 02:20 045 6 gusting 8 11.1
2014-Oct-30 02:15 067 5 gusting 9 11.1
2014-Oct-30 02:10 11.1
2014-Oct-30 02:05 045 5 gusting 6 11.1
2014-Oct-30 02:00 090 6 gusting 8 11.1
2014-Oct-30 01:55 022 6 gusting 6 11.1
2014-Oct-30 01:50 067 6 gusting 7 11.1
2014-Oct-30 01:45 11.1
2014-Oct-30 01:40 045 6 gusting 9 11.1
2014-Oct-30 01:35 045 6 gusting 10 11.1
2014-Oct-30 01:30 022 4 gusting 6 11.1
2014-Oct-30 01:25 337 5 gusting 6 11.1
2014-Oct-30 01:20 315 4 gusting 6 11.1
2014-Oct-30 01:15 022 5 gusting 6 11.1
2014-Oct-30 01:10 11.1
2014-Oct-30 01:05 045 6 gusting 7 11.1
2014-Oct-30 01:00 022 6 gusting 9 11.1
2014-Oct-30 00:55 11.1
2014-Oct-30 00:50 022 6 gusting 8 11.1
2014-Oct-30 00:45 022 6 gusting 8 11.1
2014-Oct-30 00:40 11.1
2014-Oct-30 00:35 022 6 gusting 10 11.1
2014-Oct-30 00:30 337 4 gusting 6 11.1
2014-Oct-30 00:25 11.1
2014-Oct-30 00:20 11.1
2014-Oct-30 00:15 11.1
2014-Oct-30 00:10 022 4 gusting 6 11.7
2014-Oct-30 00:05 067 6 gusting 7 11.7
2014-Oct-30 00:00 022 5 gusting 7 11.7
2014-Oct-29 23:55 022 5 gusting 8 11.7
2014-Oct-29 23:50 022 5 gusting 8 11.7
2014-Oct-29 23:45 11.7
2014-Oct-29 23:41 022 7 gusting 11 11.7
2014-Oct-29 23:35 11.7
2014-Oct-29 23:30 090 6 gusting 11 11.7
2014-Oct-29 23:25 022 5 gusting 7 11.7
2014-Oct-29 23:20 11.7
2014-Oct-29 23:15 022 8 gusting 11 11.7
2014-Oct-29 23:10 11.7
2014-Oct-29 23:05 022 7 gusting 13 11.7
2014-Oct-29 23:00 11.7
2014-Oct-29 22:55 11.7
2014-Oct-29 22:50 045 6 gusting 11 11.7
2014-Oct-29 22:45 11.7
2014-Oct-29 22:40 11.7
2014-Oct-29 22:35 11.7
2014-Oct-29 22:30 11.7
2014-Oct-29 22:25 11.7
2014-Oct-29 22:20 11.7
2014-Oct-29 22:15 11.7
2014-Oct-29 22:10 022 6 gusting 8 11.7
2014-Oct-29 22:05 270 6 gusting 8 11.7
2014-Oct-29 22:00 11.7
2014-Oct-29 21:55 022 6 gusting 7 11.7
2014-Oct-29 21:50 11.7
2014-Oct-29 21:45 11.7
2014-Oct-29 21:40 022 7 gusting 9 11.7
2014-Oct-29 21:35 022 6 gusting 9 11.7
2014-Oct-29 21:30 022 5 gusting 9 11.7
2014-Oct-29 21:25 045 5 gusting 9 11.7
2014-Oct-29 21:20 292 5 gusting 6 11.7
2014-Oct-29 21:15 202 6 gusting 9 11.7
2014-Oct-29 21:10 022 8 gusting 12 11.7
2014-Oct-29 21:05 022 4 gusting 7 11.7
2014-Oct-29 20:57 11.7
2014-Oct-29 20:55 11.7
2014-Oct-29 20:50 022 5 gusting 10 11.7
2014-Oct-29 20:45 022 6 gusting 13 11.7
2014-Oct-29 20:40 11.7
2014-Oct-29 20:35 11.7
2014-Oct-29 20:30 315 1 gusting 4 11.7
2014-Oct-29 20:25 022 3 gusting 6 11.7
2014-Oct-29 20:20 022 6 gusting 8 11.7
2014-Oct-29 20:15 11.7
2014-Oct-29 20:10 315 4 gusting 6 11.7
2014-Oct-29 20:05 045 4 gusting 6 11.7
2014-Oct-29 20:00 337 2 gusting 5 11.7
2014-Oct-29 19:55 022 3 gusting 5 11.7
2014-Oct-29 19:50 247 3 gusting 5 11.7
2014-Oct-29 19:45 022 1 gusting 2 11.7
2014-Oct-29 19:40 11.7
2014-Oct-29 19:35 11.7
2014-Oct-29 19:30 11.7
2014-Oct-29 19:25 337 7 gusting 11 11.7
2014-Oct-29 19:20 11.7
2014-Oct-29 19:15 022 7 gusting 10 12.2
2014-Oct-29 19:10 12.2
2014-Oct-29 19:05 11.7
2014-Oct-29 19:01 11.7
2014-Oct-29 18:55 11.7
2014-Oct-29 18:50 11.7
2014-Oct-29 18:45 11.7
2014-Oct-29 18:40 022 4 gusting 5 11.7
2014-Oct-29 18:35 337 6 gusting 8 11.7
2014-Oct-29 18:30 11.7
2014-Oct-29 18:25 11.7
2014-Oct-29 18:20 022 4 gusting 7 11.7
2014-Oct-29 18:15 11.7
2014-Oct-29 18:10 292 3 gusting 6 11.7
2014-Oct-29 18:05 022 8 gusting 10 11.7
2014-Oct-29 18:00 11.7
2014-Oct-29 17:56 11.7
2014-Oct-29 17:50 11.7
2014-Oct-29 17:45 022 5 gusting 9 11.7
2014-Oct-29 17:40 022 4 gusting 6 11.7
2014-Oct-29 17:35 045 6 gusting 9 11.7
2014-Oct-29 17:30 315 1 gusting 4 11.7
2014-Oct-29 17:25 315 2 gusting 5 11.7
2014-Oct-29 17:20 11.7
2014-Oct-29 17:15 270 3 gusting 5 11.7
2014-Oct-29 17:10 315 5 gusting 8 11.7
2014-Oct-29 17:05 315 2 gusting 3 11.7
2014-Oct-29 17:00 315 4 gusting 6 11.7
2014-Oct-29 16:56 337 4 gusting 6 11.7
2014-Oct-29 16:50 11.7
2014-Oct-29 16:45 090 3 gusting 6 11.7
2014-Oct-29 16:40 11.7
2014-Oct-29 16:35 022 4 gusting 7 11.7
2014-Oct-29 16:30 11.1
2014-Oct-29 16:25 11.1
2014-Oct-29 16:20 315 1 gusting 3 11.1
2014-Oct-29 16:16 045 2 gusting 4 11.1
2014-Oct-29 16:10 067 5 gusting 7 11.1
2014-Oct-29 16:05 11.1
2014-Oct-29 16:00 337 5 gusting 6 11.1
2014-Oct-29 15:55 11.1
2014-Oct-29 15:50 11.1
2014-Oct-29 15:45 11.1
2014-Oct-29 15:40 045 5 gusting 7 11.7
2014-Oct-29 15:35 022 5 gusting 6 11.7
2014-Oct-29 15:30 045 4 gusting 8 11.7
2014-Oct-29 15:25 045 2 gusting 4 11.1
2014-Oct-29 15:20 022 5 gusting 6 11.1
2014-Oct-29 15:16 337 1 gusting 2 11.7
2014-Oct-29 15:10 022 1 gusting 2 11.7
2014-Oct-29 15:05 11.7
2014-Oct-29 15:00 11.7
2014-Oct-29 14:55 315 3 gusting 5 11.7
2014-Oct-29 14:50 11.7
2014-Oct-29 14:45 045 2 gusting 3 11.7
2014-Oct-29 14:40 022 5 gusting 7 11.7
2014-Oct-29 14:35 11.7
2014-Oct-29 14:30 022 5 gusting 7 11.7
2014-Oct-29 14:25 112 5 gusting 7 11.7
2014-Oct-29 14:20 022 3 gusting 6 12.2
2014-Oct-29 14:16 337 5 gusting 7 12.2
2014-Oct-29 14:10 022 3 gusting 6 12.2
2014-Oct-29 14:05 12.2
2014-Oct-29 14:00 022 2 gusting 3 12.2
2014-Oct-29 13:55 180 2 gusting 3 12.2
2014-Oct-29 13:50 12.2
2014-Oct-29 13:45 12.2
2014-Oct-29 13:40 12.2
2014-Oct-29 13:36 12.8
2014-Oct-29 13:30 045 3 gusting 5 12.8
2014-Oct-29 13:25 045 6 gusting 12 13.3
2014-Oct-29 13:20 022 5 gusting 8 13.9
2014-Oct-29 13:15 13.9
2014-Oct-29 13:10 13.9
2014-Oct-29 13:05 315 4 gusting 7 13.9
2014-Oct-29 13:00 315 4 gusting 7 13.9
2014-Oct-29 12:55 045 5 gusting 9 13.9
2014-Oct-29 12:50 14.4
2014-Oct-29 12:45 14.4
2014-Oct-29 12:40 14.4
2014-Oct-29 12:36 14.4
2014-Oct-29 12:30 15.0
2014-Oct-29 12:26 045 5 gusting 9 15.6
2014-Oct-29 12:20 022 6 gusting 8 15.6
2014-Oct-29 12:15 202 2 gusting 3 15.6
2014-Oct-29 12:10 15.6
2014-Oct-29 12:05 225 3 gusting 6 15.6
2014-Oct-29 12:00 337 5 gusting 6 16.1